createdAt,value
2018-06-23T00:01:05.299Z,91.80
2018-06-23T00:03:35.215Z,91.90
2018-06-23T00:06:05.127Z,91.90
2018-06-23T00:08:35.203Z,92.00
2018-06-23T00:11:05.111Z,92.00
2018-06-23T00:13:35.036Z,91.90
2018-06-23T00:16:05.121Z,92.10
2018-06-23T00:18:34.987Z,92.10
2018-06-23T00:21:04.916Z,92.10
2018-06-23T00:23:34.819Z,92.20
2018-06-23T00:26:09.954Z,92.10
2018-06-23T00:28:39.830Z,92.00
2018-06-23T00:31:09.731Z,92.40
2018-06-23T00:33:39.724Z,92.30
2018-06-23T00:36:09.595Z,92.30
2018-06-23T00:38:39.493Z,92.40
2018-06-23T00:41:09.388Z,92.50
2018-06-23T00:43:39.279Z,92.50
2018-06-23T00:46:09.175Z,92.70
2018-06-23T00:48:39.115Z,92.50
2018-06-23T00:51:08.951Z,92.50
2018-06-23T00:53:39.155Z,92.60
2018-06-23T00:56:09.043Z,92.80
2018-06-23T00:58:56.060Z,92.70
2018-06-23T01:01:25.951Z,92.60
2018-06-23T01:03:55.850Z,92.50
2018-06-23T01:06:26.598Z,92.70
2018-06-23T01:08:56.507Z,93.00
2018-06-23T01:11:26.551Z,93.00
2018-06-23T01:13:56.468Z,93.00
2018-06-23T01:16:26.350Z,93.00
2018-06-23T01:18:56.230Z,92.90
2018-06-23T01:21:26.123Z,93.00
2018-06-23T01:23:56.012Z,92.80
2018-06-23T01:26:25.914Z,93.20
2018-06-23T01:28:55.800Z,93.30
2018-06-23T01:31:25.915Z,93.30
2018-06-23T01:33:55.763Z,93.30
2018-06-23T01:36:25.660Z,93.20
2018-06-23T01:38:55.534Z,93.00
2018-06-23T01:41:25.434Z,93.10
2018-06-23T01:43:55.463Z,93.00
2018-06-23T01:46:25.356Z,93.00
2018-06-23T01:48:55.303Z,92.90
2018-06-23T01:51:26.102Z,92.90
2018-06-23T01:53:55.986Z,93.10
2018-06-23T01:58:55.667Z,93.20
2018-06-23T02:01:25.563Z,93.20
2018-06-23T02:03:55.446Z,93.20
2018-06-23T02:06:25.339Z,93.30
2018-06-23T02:08:55.398Z,93.40
2018-06-23T02:11:25.307Z,93.60
2018-06-23T02:14:00.411Z,93.80
2018-06-23T02:16:35.654Z,93.80
2018-06-23T02:19:10.843Z,93.80
2018-06-23T02:21:46.386Z,93.80
2018-06-23T02:24:21.503Z,93.70
2018-06-23T02:26:56.731Z,93.90
2018-06-23T02:29:31.814Z,93.90
2018-06-23T02:32:06.923Z,93.90
2018-06-23T02:34:42.012Z,93.80
2018-06-23T02:37:11.887Z,94.00
2018-06-23T02:39:41.946Z,93.80
2018-06-23T02:42:11.837Z,93.80
2018-06-23T02:44:41.733Z,93.70
2018-06-23T02:47:11.637Z,93.80
2018-06-23T02:49:41.763Z,93.80
2018-06-23T02:52:11.658Z,93.90
2018-06-23T02:54:41.558Z,93.90
2018-06-23T02:57:11.447Z,93.80
2018-06-23T02:59:41.603Z,93.70
2018-06-23T03:02:11.494Z,93.70
2018-06-23T03:04:41.392Z,93.70
2018-06-23T03:07:11.299Z,93.70
2018-06-23T03:09:41.448Z,93.90
2018-06-23T03:12:11.346Z,93.80
2018-06-23T03:14:41.427Z,93.80
2018-06-23T03:17:15.351Z,93.60
2018-06-23T03:19:48.249Z,93.70
2018-06-23T03:22:18.259Z,93.80
2018-06-23T03:24:48.155Z,93.80
2018-06-23T03:27:18.131Z,94.00
2018-06-23T03:29:48.012Z,94.10
2018-06-23T03:32:17.906Z,94.00
2018-06-23T03:34:47.821Z,93.80
2018-06-23T03:37:17.726Z,93.60
2018-06-23T03:39:47.622Z,93.70
2018-06-23T03:42:17.519Z,93.90
2018-06-23T03:44:47.430Z,93.90
2018-06-23T03:47:17.322Z,93.80
2018-06-23T03:49:47.235Z,93.70
2018-06-23T03:52:17.122Z,93.70
2018-06-23T03:54:47.141Z,93.80
2018-06-23T03:57:16.987Z,93.80
2018-06-23T03:59:46.942Z,93.70
2018-06-23T04:02:16.830Z,93.70
2018-06-23T04:04:46.730Z,93.70
2018-06-23T04:07:16.627Z,93.70
2018-06-23T04:09:46.530Z,93.80
2018-06-23T04:12:16.415Z,93.80
2018-06-23T04:14:46.310Z,93.60
2018-06-23T04:17:16.214Z,93.60
2018-06-23T04:19:46.485Z,93.70
2018-06-23T04:22:16.382Z,93.70
2018-06-23T04:24:46.307Z,93.60
2018-06-23T04:27:16.307Z,93.50
2018-06-23T04:29:46.162Z,93.60
2018-06-23T04:32:16.427Z,93.50
2018-06-23T04:34:46.424Z,93.70
2018-06-23T04:37:16.327Z,93.70
2018-06-23T04:39:46.257Z,93.80
2018-06-23T04:42:16.122Z,93.60
2018-06-23T04:44:46.030Z,93.60
2018-06-23T04:47:15.919Z,93.50
2018-06-23T04:49:45.881Z,93.60
2018-06-23T04:52:15.787Z,93.50
2018-06-23T04:54:45.883Z,93.50
2018-06-23T04:57:15.811Z,93.50
2018-06-23T04:59:45.726Z,93.50
2018-06-23T05:02:15.716Z,93.60
2018-06-23T05:04:46.303Z,93.60
2018-06-23T05:07:16.642Z,93.70
2018-06-23T05:09:46.535Z,93.80
2018-06-23T05:12:16.668Z,93.60
2018-06-23T05:14:46.690Z,93.70
2018-06-23T05:17:16.617Z,93.80
2018-06-23T05:19:46.545Z,93.60
2018-06-23T05:22:16.398Z,93.60
2018-06-23T05:24:46.306Z,93.70
2018-06-23T05:27:16.198Z,93.70
2018-06-23T05:29:46.219Z,93.60
2018-06-23T05:32:16.118Z,93.70
2018-06-23T05:34:46.015Z,93.60
2018-06-23T05:37:15.959Z,93.50
2018-06-23T05:39:46.207Z,93.00
2018-06-23T05:42:16.123Z,92.70
2018-06-23T05:44:46.078Z,92.30
2018-06-23T05:47:15.974Z,91.00
2018-06-23T05:49:51.111Z,90.70
2018-06-23T05:52:26.306Z,90.80
2018-06-23T05:55:01.412Z,90.00
2018-06-23T05:57:36.615Z,90.30
2018-06-23T06:00:11.830Z,89.30
2018-06-23T06:02:41.988Z,88.90
2018-06-23T06:05:11.907Z,87.20
2018-06-23T06:07:42.286Z,87.00
2018-06-23T06:12:42.063Z,86.00
2018-06-23T06:15:11.975Z,85.80
2018-06-23T06:17:42.163Z,88.70
2018-06-23T06:20:14.466Z,84.50
2018-06-23T06:22:45.499Z,82.50
2018-06-23T06:25:16.113Z,84.90
2018-06-23T06:27:46.414Z,85.70
2018-06-23T06:30:16.336Z,85.20
2018-06-23T06:32:46.243Z,86.90
2018-06-23T06:35:16.189Z,87.30
2018-06-23T06:37:46.258Z,88.40
2018-06-23T06:40:16.166Z,87.70
2018-06-23T06:42:46.071Z,85.90
2018-06-23T06:45:15.983Z,86.00
2018-06-23T06:47:46.216Z,85.40
2018-06-23T06:50:16.122Z,85.70
2018-06-23T06:52:46.090Z,84.70
2018-06-23T06:55:16.015Z,85.20
2018-06-23T06:57:46.062Z,82.90
2018-06-23T07:00:15.986Z,81.10
2018-06-23T07:02:45.890Z,78.60
2018-06-23T07:05:15.831Z,77.00
2018-06-23T07:07:46.192Z,74.00
2018-06-23T07:10:16.134Z,72.90
2018-06-23T07:12:46.043Z,71.70
2018-06-23T07:15:16.914Z,70.20
2018-06-23T07:17:47.027Z,70.40
2018-06-23T07:20:16.962Z,70.10
2018-06-23T07:22:46.851Z,69.20
2018-06-23T07:25:16.779Z,69.70
2018-06-23T07:27:47.114Z,70.70
2018-06-23T07:30:17.021Z,68.50
2018-06-23T07:32:46.923Z,65.70
2018-06-23T07:35:16.965Z,63.10
2018-06-23T07:37:47.727Z,62.30
2018-06-23T07:40:17.647Z,60.10
2018-06-23T07:42:47.567Z,61.60
2018-06-23T07:45:17.602Z,60.00
2018-06-23T07:50:17.311Z,58.30
2018-06-23T07:52:47.227Z,56.40
2018-06-23T07:55:17.131Z,57.50
2018-06-23T07:57:47.250Z,56.80
2018-06-23T08:00:17.147Z,59.60
2018-06-23T08:02:47.058Z,59.70
2018-06-23T08:05:16.971Z,62.60
2018-06-23T08:07:46.934Z,65.90
2018-06-23T08:10:16.903Z,67.60
2018-06-23T08:12:46.773Z,68.30
2018-06-23T08:15:16.674Z,68.40
2018-06-23T08:17:46.816Z,68.20
2018-06-23T08:20:16.719Z,65.90
2018-06-23T08:22:46.627Z,59.40
2018-06-23T08:25:16.535Z,58.50
2018-06-23T08:27:46.513Z,59.40
2018-06-23T08:30:16.407Z,59.30
2018-06-23T08:32:46.311Z,58.50
2018-06-23T08:35:16.222Z,57.40
2018-06-23T08:37:46.189Z,57.40
2018-06-23T08:40:16.503Z,59.50
2018-06-23T08:42:46.455Z,59.60
2018-06-23T08:45:16.391Z,62.10
2018-06-23T08:47:46.313Z,59.30
2018-06-23T08:50:16.224Z,60.10
2018-06-23T08:52:46.136Z,59.20
2018-06-23T08:55:16.128Z,58.10
2018-06-23T08:57:46.002Z,59.30
2018-06-23T09:02:45.608Z,56.20
2018-06-23T09:07:45.147Z,55.10
2018-06-23T09:10:15.083Z,55.20
2018-06-23T09:12:44.996Z,56.40
2018-06-23T09:15:15.431Z,55.00
2018-06-23T09:17:45.451Z,56.90
2018-06-23T09:20:15.360Z,56.60
2018-06-23T09:22:45.272Z,55.00
2018-06-23T09:25:15.228Z,54.80
2018-06-23T09:27:45.115Z,54.90
2018-06-23T09:30:15.131Z,53.10
2018-06-23T09:32:44.989Z,53.10
2018-06-23T09:35:14.902Z,54.00
2018-06-23T09:37:44.832Z,53.20
2018-06-23T09:40:14.839Z,52.50
2018-06-23T09:42:44.870Z,55.00
2018-06-23T09:45:14.736Z,55.00
2018-06-23T09:47:44.655Z,57.30
2018-06-23T09:50:14.555Z,58.10
2018-06-23T09:52:44.522Z,57.30
2018-06-23T09:55:14.432Z,56.40
2018-06-23T09:57:44.447Z,55.50
2018-06-23T10:00:16.816Z,54.10
2018-06-23T10:02:47.881Z,53.70
2018-06-23T10:05:17.734Z,53.20
2018-06-23T10:07:47.647Z,52.10
2018-06-23T10:10:17.610Z,54.20
2018-06-23T10:12:47.526Z,51.50
2018-06-23T10:15:17.429Z,53.10
2018-06-23T10:17:47.341Z,50.80
2018-06-23T10:20:17.267Z,50.10
2018-06-23T10:22:47.207Z,49.60
2018-06-23T10:25:17.154Z,49.40
2018-06-23T10:27:47.095Z,49.60
2018-06-23T10:30:17.018Z,49.30
2018-06-23T10:32:46.951Z,49.60
2018-06-23T10:35:16.910Z,49.50
2018-06-23T10:37:46.880Z,50.10
2018-06-23T10:40:16.805Z,50.10
2018-06-23T10:42:46.710Z,47.70
2018-06-23T10:45:16.658Z,49.50
2018-06-23T10:47:46.566Z,48.60
2018-06-23T10:50:17.506Z,45.90
2018-06-23T10:52:47.434Z,49.60
2018-06-23T10:55:17.623Z,46.20
2018-06-23T10:57:48.013Z,47.70
2018-06-23T11:00:17.962Z,48.00
2018-06-23T11:02:47.881Z,50.40
2018-06-23T11:05:17.799Z,44.90
2018-06-23T11:07:47.711Z,49.10
2018-06-23T11:10:17.622Z,45.60
2018-06-23T11:12:52.738Z,46.10
2018-06-23T11:15:22.647Z,43.40
2018-06-23T11:17:52.985Z,43.50
2018-06-23T11:20:22.883Z,45.80
2018-06-23T11:22:52.790Z,48.10
2018-06-23T11:25:22.706Z,47.50
2018-06-23T11:27:52.915Z,45.60
2018-06-23T11:30:22.818Z,45.40
2018-06-23T11:32:52.786Z,45.20
2018-06-23T11:35:22.687Z,45.70
2018-06-23T11:37:53.287Z,46.50
2018-06-23T11:40:23.226Z,46.20
2018-06-23T11:42:53.161Z,44.10
2018-06-23T11:45:23.087Z,49.90
2018-06-23T11:47:53.364Z,44.00
2018-06-23T11:50:23.310Z,46.50
2018-06-23T11:52:53.215Z,45.90
2018-06-23T11:55:23.173Z,47.40
2018-06-23T11:57:53.375Z,45.70
2018-06-23T12:00:23.311Z,45.60
2018-06-23T12:02:53.227Z,45.40
2018-06-23T12:05:23.388Z,45.20
2018-06-23T12:07:53.929Z,42.10
2018-06-23T12:10:23.854Z,46.50
2018-06-23T12:12:53.786Z,45.20
2018-06-23T12:17:53.439Z,46.60
2018-06-23T12:20:23.470Z,46.50
2018-06-23T12:22:53.502Z,44.60
2018-06-23T12:25:23.428Z,45.20
2018-06-23T12:27:53.766Z,44.00
2018-06-23T12:30:23.832Z,43.80
2018-06-23T12:32:53.726Z,45.00
2018-06-23T12:35:23.860Z,45.10
2018-06-23T12:37:54.778Z,44.60
2018-06-23T12:40:24.719Z,41.20
2018-06-23T12:42:54.670Z,43.80
2018-06-23T12:45:24.699Z,44.40
2018-06-23T12:47:55.274Z,42.80
2018-06-23T12:50:25.179Z,44.20
2018-06-23T12:52:55.081Z,42.10
2018-06-23T12:57:55.365Z,44.60
2018-06-23T13:00:25.236Z,41.60
2018-06-23T13:02:55.263Z,40.90
2018-06-23T13:05:25.184Z,43.60
2018-06-23T13:07:55.353Z,44.30
2018-06-23T13:10:25.251Z,44.80
2018-06-23T13:12:55.202Z,45.50
2018-06-23T13:15:25.119Z,44.60
2018-06-23T13:17:55.261Z,44.30
2018-06-23T13:20:25.171Z,45.20
2018-06-23T13:22:55.074Z,47.70
2018-06-23T13:25:24.983Z,47.90
2018-06-23T13:27:55.240Z,49.20
2018-06-23T13:30:25.110Z,46.90
2018-06-23T13:32:55.027Z,45.50
2018-06-23T13:35:25.037Z,47.00
2018-06-23T13:37:55.452Z,45.40
2018-06-23T13:40:25.356Z,46.50
2018-06-23T13:42:55.259Z,48.70
2018-06-23T13:45:25.188Z,47.80
2018-06-23T13:47:55.558Z,47.60
2018-06-23T13:50:25.456Z,47.30
2018-06-23T13:52:55.433Z,49.10
2018-06-23T13:55:25.304Z,49.50
2018-06-23T13:57:55.432Z,49.30
2018-06-23T14:00:25.346Z,48.90
2018-06-23T14:02:55.257Z,48.20
2018-06-23T14:05:25.178Z,49.30
2018-06-23T14:07:55.252Z,49.30
2018-06-23T14:10:25.170Z,49.70
2018-06-23T14:12:55.076Z,51.10
2018-06-23T14:15:24.988Z,50.60
2018-06-23T14:17:55.146Z,50.70
2018-06-23T14:20:25.056Z,51.90
2018-06-23T14:22:54.943Z,51.80
2018-06-23T14:25:24.862Z,51.10
2018-06-23T14:27:54.842Z,51.80
2018-06-23T14:30:24.771Z,51.00
2018-06-23T14:32:54.668Z,51.60
2018-06-23T14:35:24.574Z,50.50
2018-06-23T14:37:54.534Z,51.10
2018-06-23T14:40:24.478Z,51.00
2018-06-23T14:42:54.386Z,50.40
2018-06-23T14:45:24.294Z,51.40
2018-06-23T14:47:54.223Z,49.60
2018-06-23T14:50:24.125Z,48.30
2018-06-23T14:52:54.101Z,50.40
2018-06-23T14:55:24.122Z,50.80
2018-06-23T14:57:54.345Z,50.60
2018-06-23T15:00:24.236Z,51.50
2018-06-23T15:02:54.367Z,51.80
2018-06-23T15:05:24.268Z,51.80
2018-06-23T15:07:54.193Z,50.60
2018-06-23T15:10:41.205Z,49.00
2018-06-23T15:13:17.323Z,49.00
2018-06-23T15:15:47.232Z,49.90
2018-06-23T15:18:17.127Z,50.20
2018-06-23T15:20:47.022Z,48.30
2018-06-23T15:23:16.927Z,51.80
2018-06-23T15:25:46.831Z,50.10
2018-06-23T15:28:16.726Z,50.90
2018-06-23T15:30:46.638Z,51.60
2018-06-23T15:33:16.602Z,52.60
2018-06-23T15:35:46.565Z,51.80
2018-06-23T15:38:16.585Z,51.50
2018-06-23T15:40:46.384Z,51.30
2018-06-23T15:43:16.406Z,53.60
2018-06-23T15:45:46.315Z,50.60
2018-06-23T15:48:16.219Z,48.50
2018-06-23T15:50:46.165Z,48.70
2018-06-23T15:53:16.128Z,46.00
2018-06-23T15:55:46.097Z,47.90
2018-06-23T15:58:16.028Z,48.50
2018-06-23T16:00:45.953Z,50.00
2018-06-23T16:03:16.146Z,50.80
2018-06-23T16:05:46.091Z,51.20
2018-06-23T16:08:16.191Z,53.90
2018-06-23T16:10:46.110Z,52.60
2018-06-23T16:13:20.114Z,52.60
2018-06-23T16:15:54.546Z,53.60
2018-06-23T16:18:24.569Z,52.40
2018-06-23T16:20:55.007Z,53.90
2018-06-23T16:23:24.938Z,53.60
2018-06-23T16:25:54.863Z,53.10
2018-06-23T16:28:24.722Z,52.10
2018-06-23T16:30:54.657Z,52.50
2018-06-23T16:33:24.652Z,51.60
2018-06-23T16:35:54.535Z,50.80
2018-06-23T16:38:24.509Z,49.60
2018-06-23T16:40:55.168Z,49.60
2018-06-23T16:43:25.078Z,49.30
2018-06-23T16:45:54.989Z,50.60
2018-06-23T16:48:24.895Z,50.50
2018-06-23T16:50:54.798Z,49.30
2018-06-23T16:53:24.709Z,49.20
2018-06-23T16:55:54.602Z,48.80
2018-06-23T16:58:24.578Z,46.30
2018-06-23T17:00:54.686Z,45.50
2018-06-23T17:03:24.598Z,45.10
2018-06-23T17:06:00.095Z,44.10
2018-06-23T17:08:35.215Z,45.20
2018-06-23T17:11:10.614Z,46.30
2018-06-23T17:13:45.726Z,46.70
2018-06-23T17:16:20.859Z,48.60
2018-06-23T17:18:50.771Z,48.50
2018-06-23T17:21:25.990Z,50.40
2018-06-23T17:24:01.172Z,50.30
2018-06-23T17:26:36.335Z,49.10
2018-06-23T17:29:11.423Z,51.20
2018-06-23T17:31:46.550Z,52.40
2018-06-23T17:34:17.163Z,53.00
2018-06-23T17:36:47.074Z,52.90
2018-06-23T17:39:17.008Z,51.70
2018-06-23T17:41:47.002Z,52.90
2018-06-23T17:44:16.863Z,54.10
2018-06-23T17:46:46.794Z,54.80
2018-06-23T17:49:16.718Z,55.70
2018-06-23T17:51:46.617Z,55.80
2018-06-23T17:54:16.560Z,56.70
2018-06-23T17:56:46.476Z,57.10
2018-06-23T17:59:16.377Z,57.70
2018-06-23T18:01:46.276Z,57.80
2018-06-23T18:04:16.187Z,58.70
2018-06-23T18:06:46.111Z,59.30
2018-06-23T18:09:16.037Z,58.70
2018-06-23T18:11:46.014Z,59.50
2018-06-23T18:14:15.911Z,62.00
2018-06-23T18:16:45.806Z,60.20
2018-06-23T18:19:15.923Z,60.70
2018-06-23T18:21:45.818Z,60.50
2018-06-23T18:24:15.731Z,60.50
2018-06-23T18:26:45.687Z,60.30
2018-06-23T18:29:15.600Z,59.70
2018-06-23T18:31:45.570Z,59.90
2018-06-23T18:34:15.424Z,59.40
2018-06-23T18:36:45.464Z,59.70
2018-06-23T18:39:15.902Z,59.40
2018-06-23T18:41:45.795Z,59.60
2018-06-23T18:44:16.524Z,59.50
2018-06-23T18:46:46.436Z,60.10
2018-06-23T18:49:16.346Z,59.50
2018-06-23T18:51:46.271Z,59.90
2018-06-23T18:54:16.227Z,60.30
2018-06-23T18:56:46.182Z,60.60
2018-06-23T18:59:16.102Z,61.30
2018-06-23T19:01:51.207Z,63.30
2018-06-23T19:04:20.860Z,63.30
2018-06-23T19:06:50.473Z,62.80
2018-06-23T19:09:20.460Z,62.80
2018-06-23T19:11:50.291Z,62.60
2018-06-23T19:14:20.206Z,65.10
2018-06-23T19:16:50.101Z,65.50
2018-06-23T19:19:20.004Z,65.60
2018-06-23T19:21:49.913Z,66.80
2018-06-23T19:24:19.821Z,66.20
2018-06-23T19:26:49.726Z,67.60
2018-06-23T19:31:49.210Z,69.20
2018-06-23T19:34:19.139Z,68.50
2018-06-23T19:36:49.134Z,70.10
2018-06-23T19:39:19.062Z,71.00
2018-06-23T19:41:48.938Z,71.30
2018-06-23T19:44:18.917Z,71.70
2018-06-23T19:46:48.744Z,72.20
2018-06-23T19:49:18.652Z,72.50
2018-06-23T19:51:48.552Z,72.80
2018-06-23T19:54:18.463Z,73.60
2018-06-23T19:56:48.460Z,74.80
2018-06-23T19:59:18.319Z,75.60
2018-06-23T20:01:48.268Z,76.00
2018-06-23T20:04:18.318Z,77.00
2018-06-23T20:06:48.175Z,77.80
2018-06-23T20:09:18.192Z,78.10
2018-06-23T20:11:48.133Z,78.50
2018-06-23T20:14:17.994Z,78.30
2018-06-23T20:16:47.939Z,78.60
2018-06-23T20:19:17.855Z,79.10
2018-06-23T20:21:47.770Z,79.50
2018-06-23T20:24:17.683Z,80.20
2018-06-23T20:26:47.599Z,79.80
2018-06-23T20:29:17.611Z,80.20
2018-06-23T20:31:47.540Z,80.90
2018-06-23T20:34:17.447Z,81.00
2018-06-23T20:36:47.623Z,81.60
2018-06-23T20:39:17.491Z,82.30
2018-06-23T20:41:47.511Z,82.80
2018-06-23T20:44:17.359Z,83.30
2018-06-23T20:46:47.263Z,83.20
2018-06-23T20:49:17.286Z,83.80
2018-06-23T20:51:47.213Z,83.60
2018-06-23T20:54:17.102Z,84.10
2018-06-23T20:56:47.153Z,84.70
2018-06-23T20:59:17.027Z,85.60
2018-06-23T21:01:46.976Z,84.80
2018-06-23T21:04:17.041Z,85.30
2018-06-23T21:06:46.939Z,85.50
2018-06-23T21:09:16.865Z,85.60
2018-06-23T21:11:46.793Z,86.00
2018-06-23T21:14:16.777Z,86.60
2018-06-23T21:16:46.753Z,86.70
2018-06-23T21:19:16.667Z,87.00
2018-06-23T21:21:46.600Z,86.90
2018-06-23T21:24:16.572Z,87.30
2018-06-23T21:26:46.500Z,87.60
2018-06-23T21:29:16.501Z,87.50
2018-06-23T21:31:47.290Z,87.80
2018-06-23T21:34:17.264Z,88.10
2018-06-23T21:36:47.279Z,88.90
2018-06-23T21:39:17.269Z,88.50
2018-06-23T21:41:47.208Z,88.20
2018-06-23T21:44:17.059Z,88.30
2018-06-23T21:46:46.963Z,88.60
2018-06-23T21:49:16.882Z,88.80
2018-06-23T21:51:46.808Z,89.20
2018-06-23T21:54:16.736Z,89.50
2018-06-23T21:56:46.666Z,89.70
2018-06-23T21:59:16.697Z,90.00
2018-06-23T22:01:46.743Z,90.00
2018-06-23T22:04:16.756Z,90.00
2018-06-23T22:06:46.637Z,90.20
2018-06-23T22:09:16.615Z,90.20
2018-06-23T22:11:46.544Z,90.40
2018-06-23T22:14:16.472Z,90.50
2018-06-23T22:16:46.343Z,90.40
2018-06-23T22:19:16.252Z,90.50
2018-06-23T22:21:46.257Z,90.80
2018-06-23T22:24:16.186Z,90.70
2018-06-23T22:26:46.114Z,90.80
2018-06-23T22:29:16.044Z,90.80
2018-06-23T22:31:45.971Z,90.90
2018-06-23T22:34:15.898Z,90.90
2018-06-23T22:36:45.839Z,91.00
2018-06-23T22:39:15.859Z,91.00
2018-06-23T22:41:45.788Z,90.90
2018-06-23T22:44:15.642Z,91.00
2018-06-23T22:46:45.571Z,91.10
2018-06-23T22:49:15.466Z,91.30
2018-06-23T22:51:45.456Z,91.20
2018-06-23T22:54:15.555Z,91.30
2018-06-23T22:56:45.471Z,91.40
2018-06-23T22:59:15.383Z,91.30
2018-06-23T23:01:45.335Z,91.40
2018-06-23T23:04:15.438Z,91.50
2018-06-23T23:06:45.481Z,91.50
2018-06-23T23:09:15.375Z,91.50
2018-06-23T23:11:45.303Z,91.40
2018-06-23T23:14:15.267Z,91.30
2018-06-23T23:16:45.136Z,91.30
2018-06-23T23:19:15.041Z,91.40
2018-06-23T23:21:44.968Z,91.30
2018-06-23T23:24:14.867Z,91.40
2018-06-23T23:26:44.955Z,91.50
2018-06-23T23:29:14.857Z,91.50
2018-06-23T23:31:44.870Z,91.40
2018-06-23T23:34:14.800Z,91.50
2018-06-23T23:36:45.033Z,91.60
2018-06-23T23:39:14.962Z,91.50
2018-06-23T23:41:44.838Z,91.60
2018-06-23T23:44:14.751Z,91.60
2018-06-23T23:46:44.683Z,91.50
2018-06-23T23:49:14.587Z,91.70
2018-06-23T23:51:44.479Z,91.70
2018-06-23T23:54:14.430Z,91.60
2018-06-23T23:56:44.319Z,91.40
2018-06-23T23:59:14.319Z,91.40
